createdAt,value
2019-06-07T04:00:55.705Z,16.45
2019-06-07T04:02:02.790Z,17.35
2019-06-07T04:03:07.817Z,16.90
2019-06-07T04:04:13.565Z,15.50
2019-06-07T04:05:18.804Z,16.82
2019-06-07T04:06:24.553Z,16.80
2019-06-07T04:07:32.698Z,16.20
2019-06-07T04:08:41.320Z,15.08
2019-06-07T04:09:44.935Z,15.30
2019-06-07T04:10:59.827Z,15.68
2019-06-07T04:11:57.460Z,14.50
2019-06-07T04:13:03.147Z,16.65
2019-06-07T04:14:08.202Z,14.95
2019-06-07T04:15:14.080Z,15.25
2019-06-07T04:16:19.104Z,16.37
2019-06-07T04:17:24.803Z,15.63
2019-06-07T04:18:30.585Z,14.45
2019-06-07T04:19:39.403Z,15.32
2019-06-07T04:20:43.281Z,14.00
2019-06-07T04:21:48.953Z,12.85
2019-06-07T04:22:54.048Z,14.15
2019-06-07T04:23:59.689Z,12.93
2019-06-07T04:25:09.258Z,12.03
2019-06-07T04:26:14.871Z,12.40
2019-06-07T04:27:20.050Z,11.40
2019-06-07T04:29:13.873Z,10.08
2019-06-07T04:29:47.348Z,10.03
2019-06-07T04:30:42.382Z,10.30
2019-06-07T04:31:47.613Z,10.90
2019-06-07T04:32:53.425Z,10.23
2019-06-07T04:33:58.466Z,10.20
2019-06-07T04:35:04.153Z,9.85
2019-06-07T04:36:09.964Z,9.70
2019-06-07T04:37:16.672Z,8.20
2019-06-07T04:38:22.376Z,9.03
2019-06-07T04:39:33.156Z,8.23
2019-06-07T04:40:39.968Z,9.13
2019-06-07T04:41:47.057Z,8.75
2019-06-07T04:42:52.109Z,8.10
2019-06-07T04:43:59.744Z,8.25
2019-06-07T04:45:05.688Z,7.92
2019-06-07T04:46:13.204Z,7.70
2019-06-07T04:47:19.975Z,8.35
2019-06-07T04:48:30.921Z,7.60
2019-06-07T04:49:38.173Z,7.33
2019-06-07T04:50:44.080Z,7.35
2019-06-07T04:51:50.527Z,8.33
2019-06-07T04:52:56.208Z,7.95
2019-06-07T04:54:01.657Z,8.13
2019-06-07T04:55:07.722Z,7.55
2019-06-07T04:56:12.819Z,7.47
2019-06-07T04:57:18.449Z,8.10
2019-06-07T04:58:23.519Z,7.60
2019-06-07T05:00:05.543Z,8.55
2019-06-07T05:00:56.399Z,7.67
2019-06-07T05:01:43.804Z,7.67
2019-06-07T05:02:48.922Z,7.70
2019-06-07T05:03:54.669Z,8.20
2019-06-07T05:05:00.819Z,7.75
2019-06-07T05:06:06.437Z,8.53
2019-06-07T05:07:11.464Z,7.60
2019-06-07T05:08:28.183Z,8.60
2019-06-07T05:09:23.969Z,7.92
2019-06-07T05:10:30.620Z,7.55
2019-06-07T05:11:38.526Z,7.37
2019-06-07T05:12:44.498Z,7.75
2019-06-07T05:13:49.708Z,7.60
2019-06-07T05:14:55.400Z,7.87
2019-06-07T05:16:00.423Z,8.35
2019-06-07T05:17:06.160Z,7.25
2019-06-07T05:18:11.340Z,7.62
2019-06-07T05:19:16.968Z,7.67
2019-06-07T05:20:23.022Z,7.12
2019-06-07T05:21:49.360Z,7.03
2019-06-07T05:22:42.078Z,6.90
2019-06-07T05:24:10.984Z,7.95
2019-06-07T05:24:50.698Z,7.55
2019-06-07T05:25:56.304Z,7.22
2019-06-07T05:27:01.400Z,8.08
2019-06-07T05:28:08.109Z,8.50
2019-06-07T05:29:13.147Z,7.90
2019-06-07T05:31:01.981Z,7.45
2019-06-07T05:31:45.586Z,7.55
2019-06-07T05:32:51.468Z,7.28
2019-06-07T05:33:56.477Z,7.42
2019-06-07T05:35:02.622Z,7.35
2019-06-07T05:36:08.877Z,8.23
2019-06-07T05:37:14.530Z,7.83
2019-06-07T05:38:19.544Z,7.95
2019-06-07T05:39:25.248Z,7.45
2019-06-07T05:40:37.288Z,8.40
2019-06-07T05:41:44.299Z,8.25
2019-06-07T05:42:49.744Z,8.23
2019-06-07T05:44:12.181Z,8.10
2019-06-07T05:45:02.228Z,8.63
2019-06-07T05:46:07.892Z,8.13
2019-06-07T05:47:12.961Z,8.20
2019-06-07T05:48:18.575Z,8.60
2019-06-07T05:49:23.572Z,7.80
2019-06-07T05:50:42.323Z,7.85
2019-06-07T05:51:38.124Z,7.30
2019-06-07T05:52:46.891Z,7.95
2019-06-07T05:53:49.983Z,7.65
2019-06-07T05:54:55.666Z,6.85
2019-06-07T05:56:00.739Z,7.37
2019-06-07T05:57:06.520Z,7.40
2019-06-07T05:58:11.606Z,6.87
2019-06-07T05:59:17.294Z,6.70
2019-06-07T06:00:22.400Z,6.87
2019-06-07T06:01:53.423Z,6.78
2019-06-07T06:02:58.686Z,6.80
2019-06-07T06:03:44.064Z,6.30
2019-06-07T06:04:49.590Z,6.53
2019-06-07T06:05:55.805Z,6.87
2019-06-07T06:07:00.868Z,6.17
2019-06-07T06:08:06.680Z,6.78
2019-06-07T06:09:14.170Z,6.50
2019-06-07T06:10:19.281Z,6.37
2019-06-07T06:11:43.209Z,6.33
2019-06-07T06:12:35.182Z,5.87
2019-06-07T06:14:03.552Z,6.15
2019-06-07T06:14:47.213Z,6.55
2019-06-07T06:16:01.263Z,6.70
2019-06-07T06:16:59.736Z,5.60
2019-06-07T06:18:05.042Z,5.65
2019-06-07T06:19:10.684Z,5.70
2019-06-07T06:20:15.812Z,5.55
2019-06-07T06:21:21.595Z,5.75
2019-06-07T06:22:26.686Z,6.12
2019-06-07T06:23:32.348Z,5.80
2019-06-07T06:24:39.280Z,6.12
2019-06-07T06:25:52.447Z,6.05
2019-06-07T06:26:57.040Z,5.75
2019-06-07T06:28:12.102Z,5.97
2019-06-07T06:29:05.769Z,5.33
2019-06-07T06:30:12.534Z,5.90
2019-06-07T06:31:17.558Z,5.75
2019-06-07T06:33:34.493Z,5.30
2019-06-07T06:34:40.006Z,5.70
2019-06-07T06:35:48.432Z,5.37
2019-06-07T06:36:52.514Z,5.58
2019-06-07T06:37:57.617Z,5.37
2019-06-07T06:39:03.386Z,5.22
2019-06-07T06:40:11.192Z,5.42
2019-06-07T06:41:17.143Z,6.00
2019-06-07T06:42:22.324Z,5.92
2019-06-07T06:43:27.954Z,5.90
2019-06-07T06:44:33.041Z,5.53
2019-06-07T06:45:39.835Z,5.12
2019-06-07T06:46:52.129Z,5.80
2019-06-07T06:47:53.092Z,6.05
2019-06-07T06:48:58.517Z,5.05
2019-06-07T06:50:05.101Z,6.00
2019-06-07T06:51:10.169Z,5.28
2019-06-07T06:52:15.725Z,6.40
2019-06-07T06:53:21.787Z,6.00
2019-06-07T06:54:40.084Z,5.95
2019-06-07T06:55:34.219Z,5.80
2019-06-07T06:56:43.524Z,5.20
2019-06-07T06:57:48.375Z,6.12
2019-06-07T07:00:00.938Z,6.22
2019-06-07T07:01:07.255Z,6.12
2019-06-07T07:02:13.511Z,5.53
2019-06-07T07:04:26.758Z,5.55
2019-06-07T07:05:32.600Z,5.40
2019-06-07T07:06:38.047Z,5.33
2019-06-07T07:07:45.434Z,5.22
2019-06-07T07:08:53.418Z,5.60
2019-06-07T07:10:00.033Z,5.28
2019-06-07T07:11:06.951Z,5.28
2019-06-07T07:12:14.894Z,5.17
2019-06-07T07:13:19.294Z,5.15
2019-06-07T07:14:25.097Z,4.50
2019-06-07T07:15:30.346Z,5.42
2019-06-07T07:16:36.076Z,4.90
2019-06-07T07:17:54.018Z,4.95
2019-06-07T07:18:52.909Z,5.05
2019-06-07T07:19:56.264Z,4.97
2019-06-07T07:21:01.984Z,5.75
2019-06-07T07:22:07.164Z,4.95
2019-06-07T07:23:13.009Z,4.80
2019-06-07T07:24:21.450Z,4.72
2019-06-07T07:25:25.352Z,5.10
2019-06-07T07:26:30.420Z,5.08
2019-06-07T07:27:36.078Z,4.33
2019-06-07T07:28:42.827Z,4.12
2019-06-07T07:29:56.425Z,4.87
2019-06-07T07:30:57.170Z,4.67
2019-06-07T07:32:03.216Z,3.87
2019-06-07T07:33:08.318Z,4.60
2019-06-07T07:34:34.011Z,4.60
2019-06-07T07:35:21.669Z,4.35
2019-06-07T07:36:38.694Z,4.12
2019-06-07T07:37:34.295Z,5.12
2019-06-07T07:38:39.897Z,4.78
2019-06-07T07:39:48.116Z,4.65
2019-06-07T07:41:05.048Z,4.20
2019-06-07T07:42:17.908Z,4.90
2019-06-07T07:43:06.821Z,4.50
2019-06-07T07:44:11.858Z,4.37
2019-06-07T07:45:17.453Z,4.90
2019-06-07T07:46:30.359Z,4.55
2019-06-07T07:47:29.828Z,4.50
2019-06-07T07:48:34.840Z,5.28
2019-06-07T07:49:40.459Z,4.60
2019-06-07T07:50:49.102Z,4.40
2019-06-07T07:51:58.320Z,4.00
2019-06-07T07:53:00.656Z,4.30
2019-06-07T07:54:10.937Z,3.90
2019-06-07T07:55:13.450Z,4.08
2019-06-07T07:56:19.111Z,4.45
2019-06-07T07:57:25.182Z,4.50
2019-06-07T07:58:30.845Z,4.65
2019-06-07T07:59:44.087Z,4.00
2019-06-07T08:00:56.982Z,7.42
2019-06-07T08:01:53.924Z,6.60
2019-06-07T08:03:01.579Z,5.20
2019-06-07T08:04:04.062Z,4.75
2019-06-07T08:05:22.492Z,3.55
2019-06-07T08:06:16.872Z,3.62
2019-06-07T08:07:22.573Z,3.98
2019-06-07T08:08:27.804Z,3.45
2019-06-07T08:09:34.543Z,3.42
2019-06-07T08:10:39.717Z,5.92
2019-06-07T08:11:47.364Z,3.85
2019-06-07T08:13:14.188Z,4.70
2019-06-07T08:13:59.672Z,3.70
2019-06-07T08:15:05.341Z,3.50
2019-06-07T08:16:15.528Z,3.15
2019-06-07T08:17:17.841Z,2.60
2019-06-07T08:18:23.459Z,2.75
2019-06-07T08:19:28.540Z,2.40
2019-06-07T08:20:34.248Z,2.45
2019-06-07T08:21:39.266Z,2.95
2019-06-07T08:22:45.055Z,2.75
2019-06-07T08:23:51.596Z,2.80
2019-06-07T08:24:59.846Z,3.05
2019-06-07T08:26:04.188Z,3.22
2019-06-07T08:27:25.185Z,2.40
2019-06-07T08:28:16.665Z,2.30
2019-06-07T08:29:22.315Z,2.83
2019-06-07T08:31:35.101Z,3.72
2019-06-07T08:32:40.134Z,3.65
2019-06-07T08:33:45.796Z,2.83
2019-06-07T08:34:54.933Z,2.67
2019-06-07T08:36:10.309Z,2.95
2019-06-07T08:37:05.062Z,2.80
2019-06-07T08:38:33.967Z,3.47
2019-06-07T08:39:17.599Z,3.00
2019-06-07T08:40:23.329Z,3.40
2019-06-07T08:41:29.401Z,3.02
2019-06-07T08:42:37.959Z,3.62
2019-06-07T08:43:41.749Z,2.60
2019-06-07T08:44:47.397Z,2.95
2019-06-07T08:45:58.524Z,2.40
2019-06-07T08:47:17.726Z,2.33
2019-06-07T08:48:26.644Z,3.10
2019-06-07T08:49:14.054Z,3.15
2019-06-07T08:50:20.690Z,2.77
2019-06-07T08:51:26.388Z,3.20
2019-06-07T08:52:31.408Z,3.33
2019-06-07T08:53:38.133Z,3.10
2019-06-07T08:54:44.398Z,2.92
2019-06-07T08:55:52.425Z,2.17
2019-06-07T08:57:18.581Z,3.30
2019-06-07T08:58:08.602Z,3.20
2019-06-07T08:59:11.757Z,2.70
2019-06-07T09:00:42.951Z,2.70
2019-06-07T09:01:25.003Z,2.92
2019-06-07T09:02:30.749Z,3.70
2019-06-07T09:03:35.803Z,3.50
2019-06-07T09:04:41.472Z,2.70
2019-06-07T09:05:46.487Z,3.08
2019-06-07T09:07:07.272Z,2.80
2019-06-07T09:08:21.744Z,2.30
2019-06-07T09:09:08.197Z,2.37
2019-06-07T09:10:15.217Z,2.10
2019-06-07T09:11:20.992Z,3.17
2019-06-07T09:12:26.170Z,2.90
2019-06-07T09:13:31.720Z,2.50
2019-06-07T09:14:56.498Z,3.25
2019-06-07T09:15:44.259Z,2.85
2019-06-07T09:16:49.478Z,2.85
2019-06-07T09:18:34.817Z,2.80
2019-06-07T09:19:10.099Z,2.70
2019-06-07T09:20:35.043Z,3.25
2019-06-07T09:21:17.536Z,2.80
2019-06-07T09:22:23.211Z,3.25
2019-06-07T09:23:28.447Z,3.10
2019-06-07T09:24:34.078Z,3.35
2019-06-07T09:25:55.965Z,2.65
2019-06-07T09:26:46.449Z,2.90
2019-06-07T09:27:51.715Z,3.05
2019-06-07T09:28:58.448Z,2.47
2019-06-07T09:30:15.163Z,3.10
2019-06-07T09:31:13.592Z,3.35
2019-06-07T09:32:18.807Z,3.40
2019-06-07T09:33:24.530Z,3.60
2019-06-07T09:34:29.682Z,3.50
2019-06-07T09:35:35.426Z,2.72
2019-06-07T09:36:40.496Z,3.08
2019-06-07T09:38:53.667Z,2.77
2019-06-07T09:40:09.660Z,2.15
2019-06-07T09:41:08.075Z,3.10
2019-06-07T09:42:14.810Z,3.17
2019-06-07T09:43:59.942Z,2.50
2019-06-07T09:44:27.156Z,2.55
2019-06-07T09:45:32.380Z,3.20
2019-06-07T09:46:38.096Z,2.80
2019-06-07T09:47:43.193Z,3.17
2019-06-07T09:49:58.628Z,2.85
2019-06-07T09:51:09.868Z,3.17
2019-06-07T09:52:11.094Z,2.80
2019-06-07T09:53:22.795Z,3.10
2019-06-07T09:55:03.708Z,2.22
2019-06-07T09:55:30.981Z,2.10
2019-06-07T09:56:36.098Z,2.83
2019-06-07T09:57:41.819Z,2.25
2019-06-07T09:58:51.875Z,2.50
2019-06-07T09:59:54.132Z,2.92
2019-06-07T10:01:03.629Z,3.08
2019-06-07T10:02:13.222Z,2.87
2019-06-07T10:03:21.110Z,2.35
2019-06-07T10:04:30.607Z,2.30
2019-06-07T10:05:27.398Z,2.85
2019-06-07T10:06:33.087Z,3.00
2019-06-07T10:07:38.382Z,2.33
2019-06-07T10:10:08.161Z,2.35
2019-06-07T10:11:00.325Z,2.62
2019-06-07T10:12:06.639Z,2.60
2019-06-07T10:13:12.314Z,3.00
2019-06-07T10:14:17.410Z,3.05
2019-06-07T10:15:23.100Z,2.42
2019-06-07T10:16:28.137Z,2.47
2019-06-07T10:17:34.704Z,2.08
2019-06-07T10:18:39.726Z,2.15
2019-06-07T10:19:45.364Z,2.70
2019-06-07T10:20:50.393Z,2.58
2019-06-07T10:21:56.179Z,2.75
2019-06-07T10:23:01.631Z,2.40
2019-06-07T10:24:07.448Z,2.80
2019-06-07T10:25:12.716Z,3.08
2019-06-07T10:26:18.424Z,3.08
2019-06-07T10:27:23.437Z,2.77
2019-06-07T10:28:29.142Z,2.40
2019-06-07T10:29:34.176Z,2.30
2019-06-07T10:30:39.912Z,2.42
2019-06-07T10:31:44.942Z,2.83
2019-06-07T10:32:52.400Z,2.62
2019-06-07T10:33:57.553Z,2.55
2019-06-07T10:35:04.723Z,2.33
2019-06-07T10:36:10.744Z,3.00
2019-06-07T10:37:16.554Z,2.80
2019-06-07T10:38:21.749Z,3.22
2019-06-07T10:39:27.436Z,3.35
2019-06-07T10:40:32.520Z,3.17
2019-06-07T10:41:38.286Z,3.00
2019-06-07T10:42:43.429Z,2.80
2019-06-07T10:43:49.048Z,2.95
2019-06-07T10:44:54.288Z,2.72
2019-06-07T10:46:01.340Z,3.27
2019-06-07T10:47:07.983Z,2.80
2019-06-07T10:48:13.853Z,2.70
2019-06-07T10:49:18.936Z,2.90
2019-06-07T10:50:24.540Z,3.45
2019-06-07T10:51:29.603Z,3.67
2019-06-07T10:52:35.245Z,3.22
2019-06-07T10:53:40.279Z,3.92
2019-06-07T10:54:45.852Z,3.55
2019-06-07T10:55:50.933Z,3.33
2019-06-07T10:56:56.669Z,3.58
2019-06-07T10:58:02.752Z,3.85
2019-06-07T10:59:09.613Z,3.50
2019-06-07T11:00:19.077Z,3.05
2019-06-07T11:01:24.765Z,3.17
2019-06-07T11:02:29.918Z,3.50
2019-06-07T11:03:36.486Z,3.62
2019-06-07T11:04:41.586Z,3.87
2019-06-07T11:05:47.245Z,3.67
2019-06-07T11:06:52.247Z,3.30
2019-06-07T11:08:00.605Z,3.85
2019-06-07T11:09:07.893Z,3.70
2019-06-07T11:10:19.454Z,3.20
2019-06-07T11:11:20.592Z,3.70
2019-06-07T11:12:26.232Z,3.50
2019-06-07T11:13:31.356Z,4.30
2019-06-07T11:14:37.098Z,4.10
2019-06-07T11:15:42.109Z,3.60
2019-06-07T11:16:47.813Z,3.20
2019-06-07T11:17:52.857Z,4.00
2019-06-07T11:18:58.540Z,3.25
2019-06-07T11:20:03.933Z,3.37
2019-06-07T11:21:10.099Z,3.98
2019-06-07T11:22:15.342Z,3.80
2019-06-07T11:23:21.054Z,4.17
2019-06-07T11:24:26.159Z,3.47
2019-06-07T11:25:31.960Z,3.65
2019-06-07T11:26:37.173Z,3.20
2019-06-07T11:27:42.864Z,3.62
2019-06-07T11:28:47.899Z,3.50
2019-06-07T11:29:53.571Z,4.83
2019-06-07T11:30:58.671Z,3.90
2019-06-07T11:32:06.254Z,3.87
2019-06-07T11:33:12.338Z,4.03
2019-06-07T11:34:18.956Z,3.80
2019-06-07T11:35:24.061Z,3.98
2019-06-07T11:36:29.780Z,3.42
2019-06-07T11:37:34.963Z,3.83
2019-06-07T11:38:40.578Z,4.85
2019-06-07T11:39:45.698Z,4.00
2019-06-07T11:40:51.380Z,4.67
2019-06-07T11:41:56.467Z,3.90
2019-06-07T11:43:02.258Z,4.15
2019-06-07T11:44:08.670Z,4.50
2019-06-07T11:45:15.581Z,4.10
2019-06-07T11:46:20.768Z,3.60
2019-06-07T11:47:26.388Z,3.70
2019-06-07T11:48:31.557Z,4.20
2019-06-07T11:49:37.261Z,4.10
2019-06-07T11:50:43.448Z,4.25
2019-06-07T11:51:49.151Z,3.58
2019-06-07T11:52:54.265Z,4.20
2019-06-07T11:53:59.985Z,4.00
2019-06-07T11:55:06.628Z,3.80
2019-06-07T11:56:12.373Z,4.40
2019-06-07T11:57:17.473Z,4.03
2019-06-07T11:58:23.142Z,3.90
2019-06-07T11:59:28.257Z,3.20
2019-06-07T12:00:34.429Z,3.83
2019-06-07T12:01:39.643Z,4.65
2019-06-07T12:02:45.242Z,4.53
2019-06-07T12:03:50.502Z,3.70
2019-06-07T12:04:56.208Z,3.70
2019-06-07T12:06:01.368Z,4.55
2019-06-07T12:07:10.835Z,3.95
2019-06-07T12:08:16.057Z,3.70
2019-06-07T12:09:21.943Z,4.78
2019-06-07T12:10:39.520Z,4.20
2019-06-07T12:11:34.460Z,4.17
2019-06-07T12:12:39.521Z,4.20
2019-06-07T12:13:45.240Z,3.52
2019-06-07T12:14:50.394Z,3.75
2019-06-07T12:15:56.142Z,4.00
2019-06-07T12:17:01.283Z,3.60
2019-06-07T12:18:07.041Z,4.15
2019-06-07T12:19:13.503Z,3.98
2019-06-07T12:20:20.977Z,3.85
2019-06-07T12:21:26.354Z,3.98
2019-06-07T12:22:32.165Z,3.75
2019-06-07T12:23:38.295Z,3.87
2019-06-07T12:24:44.040Z,3.87
2019-06-07T12:25:49.048Z,4.17
2019-06-07T12:26:54.648Z,4.60
2019-06-07T12:27:59.771Z,4.10
2019-06-07T12:29:05.908Z,4.20
2019-06-07T12:30:20.727Z,4.42
2019-06-07T12:31:19.438Z,4.35
2019-06-07T12:32:24.476Z,4.35
2019-06-07T12:33:30.099Z,4.75
2019-06-07T12:34:35.134Z,4.00
2019-06-07T12:35:40.763Z,4.20
2019-06-07T12:36:45.800Z,3.98
2019-06-07T12:37:51.702Z,3.70
2019-06-07T12:38:56.784Z,4.30
2019-06-07T12:40:02.648Z,4.33
2019-06-07T12:41:07.774Z,4.10
2019-06-07T12:42:14.917Z,4.40
2019-06-07T12:43:20.899Z,3.90
2019-06-07T12:44:26.721Z,4.15
2019-06-07T12:45:44.334Z,4.25
2019-06-07T12:46:39.046Z,4.12
2019-06-07T12:47:44.445Z,3.77
2019-06-07T12:48:50.113Z,4.40
2019-06-07T12:49:55.230Z,3.72
2019-06-07T12:51:00.969Z,4.00
2019-06-07T12:52:06.093Z,3.50
2019-06-07T12:53:11.879Z,3.92
2019-06-07T12:54:17.571Z,3.90
2019-06-07T12:55:24.856Z,3.47
2019-06-07T12:56:30.101Z,4.87
2019-06-07T12:57:35.808Z,4.08
2019-06-07T12:58:40.929Z,4.87
2019-06-07T12:59:46.629Z,3.83
2019-06-07T13:00:51.773Z,4.08
2019-06-07T13:02:02.256Z,3.85
2019-06-07T13:03:04.621Z,4.00
2019-06-07T13:04:10.282Z,4.20
2019-06-07T13:05:15.716Z,4.15
2019-06-07T13:06:21.693Z,4.12
2019-06-07T13:07:27.965Z,4.10
2019-06-07T13:08:33.723Z,4.03
2019-06-07T13:09:38.838Z,4.10
2019-06-07T13:10:44.599Z,4.60
2019-06-07T13:11:49.736Z,3.95
2019-06-07T13:12:55.318Z,4.05
2019-06-07T13:14:00.436Z,4.10
2019-06-07T13:15:07.024Z,4.05
2019-06-07T13:16:12.137Z,4.40
2019-06-07T13:17:18.052Z,3.70
2019-06-07T13:18:25.166Z,4.37
2019-06-07T13:19:31.220Z,4.75
2019-06-07T13:20:36.359Z,3.72
2019-06-07T13:21:42.295Z,4.80
2019-06-07T13:22:47.397Z,3.90
2019-06-07T13:23:53.121Z,4.42
2019-06-07T13:24:59.564Z,4.58
2019-06-07T13:26:05.513Z,4.15
2019-06-07T13:27:10.686Z,3.95
2019-06-07T13:28:17.270Z,3.90
2019-06-07T13:29:23.154Z,3.75
2019-06-07T13:30:29.033Z,4.15
2019-06-07T13:31:34.177Z,4.00
2019-06-07T13:32:39.906Z,4.00
2019-06-07T13:33:45.044Z,4.15
2019-06-07T13:34:50.754Z,4.22
2019-06-07T13:35:55.828Z,4.45
2019-06-07T13:37:01.455Z,4.65
2019-06-07T13:38:07.576Z,4.37
2019-06-07T13:39:13.563Z,3.70
2019-06-07T13:40:21.178Z,3.75
2019-06-07T13:41:40.441Z,4.35
2019-06-07T13:42:35.225Z,4.20
2019-06-07T13:43:40.911Z,4.87
2019-06-07T13:44:46.102Z,3.70
2019-06-07T13:45:51.839Z,4.00
2019-06-07T13:46:56.989Z,4.05
2019-06-07T13:48:02.646Z,4.17
2019-06-07T13:49:07.751Z,4.40
2019-06-07T13:50:13.735Z,3.98
2019-06-07T13:51:20.603Z,3.72
2019-06-07T13:52:27.273Z,4.10
2019-06-07T13:53:32.394Z,4.03
2019-06-07T13:54:38.068Z,4.33
2019-06-07T13:55:43.128Z,3.72
2019-06-07T13:57:01.589Z,3.95
2019-06-07T13:57:56.680Z,4.00
2019-06-07T13:59:02.302Z,3.92
2019-06-07T14:00:10.937Z,3.55
2019-06-07T14:01:16.235Z,4.10
2019-06-07T14:02:23.485Z,4.20
2019-06-07T14:03:33.395Z,3.80
2019-06-07T14:04:35.722Z,4.22
2019-06-07T14:05:41.313Z,3.67
2019-06-07T14:06:46.352Z,4.67
2019-06-07T14:07:51.979Z,4.70
2019-06-07T14:08:57.089Z,4.00
2019-06-07T14:10:02.815Z,3.87
2019-06-07T14:11:07.869Z,4.25
2019-06-07T14:12:13.532Z,3.98
2019-06-07T14:13:19.448Z,4.20
2019-06-07T14:14:26.995Z,3.70
2019-06-07T14:15:34.443Z,3.70
2019-06-07T14:16:39.397Z,3.58
2019-06-07T14:17:44.420Z,3.80
2019-06-07T14:18:50.199Z,3.55
2019-06-07T14:19:55.299Z,3.47
2019-06-07T14:21:02.064Z,3.65
2019-06-07T14:22:07.120Z,3.90
2019-06-07T14:23:12.873Z,3.77
2019-06-07T14:24:18.019Z,3.80
2019-06-07T14:25:25.067Z,4.30
2019-06-07T14:26:32.388Z,3.72
2019-06-07T14:27:37.518Z,3.77
2019-06-07T14:28:42.581Z,3.55
2019-06-07T14:29:48.304Z,4.22
2019-06-07T14:30:53.424Z,3.65
2019-06-07T14:32:00.057Z,3.90
2019-06-07T14:33:05.408Z,3.80
2019-06-07T14:34:11.024Z,4.12
2019-06-07T14:35:16.378Z,3.75
2019-06-07T14:36:22.740Z,3.72
2019-06-07T14:37:29.006Z,4.08
2019-06-07T14:38:37.482Z,3.58
2019-06-07T14:39:41.554Z,3.85
2019-06-07T14:40:47.282Z,3.72
2019-06-07T14:42:07.973Z,3.70
2019-06-07T14:42:59.772Z,3.55
2019-06-07T14:44:05.102Z,3.47
2019-06-07T14:45:11.380Z,3.67
2019-06-07T14:46:16.491Z,3.87
2019-06-07T14:47:23.678Z,4.37
2019-06-07T14:48:30.134Z,3.30
2019-06-07T14:49:36.036Z,3.95
2019-06-07T14:50:41.112Z,3.80
2019-06-07T14:51:46.794Z,3.60
2019-06-07T14:52:51.815Z,3.70
2019-06-07T14:53:57.464Z,3.30
2019-06-07T14:55:02.565Z,3.50
2019-06-07T14:56:08.154Z,3.65
2019-06-07T14:57:13.219Z,3.80
2019-06-07T14:58:18.947Z,3.92
2019-06-07T14:59:24.271Z,3.12
2019-06-07T15:00:41.666Z,4.15
2019-06-07T15:01:46.815Z,3.55
2019-06-07T15:02:52.537Z,4.33
2019-06-07T15:03:57.556Z,3.98
2019-06-07T15:05:03.568Z,3.40
2019-06-07T15:06:08.631Z,3.90
2019-06-07T15:07:17.599Z,3.70
2019-06-07T15:08:22.640Z,3.35
2019-06-07T15:09:29.081Z,4.00
2019-06-07T15:10:35.286Z,3.92
2019-06-07T15:11:40.984Z,3.65
2019-06-07T15:12:46.146Z,3.10
2019-06-07T15:13:51.756Z,3.70
2019-06-07T15:14:56.780Z,3.45
2019-06-07T15:16:02.485Z,3.80
2019-06-07T15:17:07.500Z,3.42
2019-06-07T15:18:13.153Z,3.80
2019-06-07T15:19:18.304Z,3.27
2019-06-07T15:20:24.094Z,3.20
2019-06-07T15:21:29.281Z,3.47
2019-06-07T15:22:36.148Z,3.30
2019-06-07T15:23:41.404Z,3.45
2019-06-07T15:24:47.101Z,3.10
2019-06-07T15:25:52.154Z,2.65
2019-06-07T15:26:57.753Z,3.70
2019-06-07T15:28:02.830Z,3.35
2019-06-07T15:29:08.549Z,3.33
2019-06-07T15:30:15.613Z,3.72
2019-06-07T15:31:21.173Z,4.35
2019-06-07T15:32:28.034Z,3.40
2019-06-07T15:33:34.327Z,3.52
2019-06-07T15:34:39.482Z,3.92
2019-06-07T15:35:45.096Z,3.37
2019-06-07T15:36:50.191Z,3.40
2019-06-07T15:37:55.832Z,3.30
2019-06-07T15:39:01.816Z,3.37
2019-06-07T15:40:09.882Z,3.67
2019-06-07T15:41:14.939Z,3.35
2019-06-07T15:42:20.616Z,2.90
2019-06-07T15:43:25.619Z,3.15
2019-06-07T15:44:31.244Z,3.37
2019-06-07T15:45:37.700Z,3.40
2019-06-07T15:46:43.463Z,3.22
2019-06-07T15:47:48.573Z,3.12
2019-06-07T15:48:54.233Z,3.15
2019-06-07T15:49:59.278Z,3.22
2019-06-07T15:51:05.935Z,3.70
2019-06-07T15:52:10.986Z,3.33
2019-06-07T15:53:16.620Z,2.98
2019-06-07T15:54:21.651Z,3.10
2019-06-07T15:55:27.354Z,3.52
2019-06-07T15:56:32.632Z,3.12
2019-06-07T15:57:39.607Z,3.20
2019-06-07T15:58:44.996Z,3.10
2019-06-07T15:59:50.661Z,3.65
2019-06-07T16:00:55.677Z,3.27
2019-06-07T16:02:01.297Z,3.85
2019-06-07T16:03:06.492Z,3.75
2019-06-07T16:04:12.127Z,2.98
2019-06-07T16:05:17.764Z,2.98
2019-06-07T16:06:23.357Z,3.67
2019-06-07T16:07:28.406Z,3.15
2019-06-07T16:08:34.331Z,3.40
2019-06-07T16:09:40.641Z,2.83
2019-06-07T16:10:46.504Z,3.25
2019-06-07T16:11:51.801Z,3.87
2019-06-07T16:13:00.572Z,3.85
2019-06-07T16:14:06.269Z,4.12
2019-06-07T16:15:12.214Z,3.80
2019-06-07T16:16:17.342Z,3.40
2019-06-07T16:17:22.981Z,3.95
2019-06-07T16:18:28.006Z,4.00
2019-06-07T16:19:38.053Z,4.10
2019-06-07T16:20:41.468Z,4.17
2019-06-07T16:21:47.240Z,3.92
2019-06-07T16:22:52.336Z,4.30
2019-06-07T16:23:57.965Z,4.45
2019-06-07T16:25:03.100Z,4.22
2019-06-07T16:26:08.740Z,5.35
2019-06-07T16:27:13.840Z,5.25
2019-06-07T16:28:19.542Z,5.25
2019-06-07T16:29:24.626Z,4.05
2019-06-07T16:30:30.346Z,4.75
2019-06-07T16:31:36.538Z,4.20
2019-06-07T16:32:43.974Z,5.60
2019-06-07T16:33:49.096Z,3.87
2019-06-07T16:34:54.874Z,4.20
2019-06-07T16:36:00.047Z,4.30
2019-06-07T16:37:05.761Z,4.75
2019-06-07T16:38:11.002Z,3.92
2019-06-07T16:39:16.819Z,4.53
2019-06-07T16:40:22.187Z,4.40
2019-06-07T16:41:27.791Z,4.60
2019-06-07T16:42:33.057Z,4.50
2019-06-07T16:43:38.785Z,3.92
2019-06-07T16:44:44.780Z,4.35
2019-06-07T16:45:50.509Z,4.33
2019-06-07T16:46:55.640Z,4.20
2019-06-07T16:48:01.324Z,4.53
2019-06-07T16:49:06.429Z,3.80
2019-06-07T16:50:12.632Z,4.35
2019-06-07T16:51:17.888Z,4.50
2019-06-07T16:52:23.647Z,4.33
2019-06-07T16:53:28.790Z,4.47
2019-06-07T16:54:35.670Z,4.35
2019-06-07T16:55:41.079Z,4.25
2019-06-07T16:56:49.794Z,4.58
2019-06-07T16:57:53.564Z,4.08
2019-06-07T16:58:59.155Z,4.25
2019-06-07T17:00:05.950Z,4.80
2019-06-07T17:01:11.617Z,3.85
2019-06-07T17:02:16.717Z,4.00
2019-06-07T17:03:22.527Z,3.15
2019-06-07T17:04:27.639Z,2.80
2019-06-07T17:05:33.254Z,3.30
2019-06-07T17:06:39.494Z,3.30
2019-06-07T17:07:46.851Z,2.83
2019-06-07T17:08:52.221Z,2.80
2019-06-07T17:09:58.053Z,3.02
2019-06-07T17:11:03.109Z,2.47
2019-06-07T17:12:08.803Z,2.75
2019-06-07T17:13:13.936Z,2.85
2019-06-07T17:14:19.626Z,2.60
2019-06-07T17:15:24.863Z,2.52
2019-06-07T17:16:30.635Z,3.10
2019-06-07T17:17:35.660Z,3.00
2019-06-07T17:18:41.378Z,2.70
2019-06-07T17:19:47.102Z,2.80
2019-06-07T17:20:52.937Z,2.42
2019-06-07T17:21:58.223Z,2.60
2019-06-07T17:23:03.907Z,2.90
2019-06-07T17:24:09.004Z,2.55
2019-06-07T17:25:15.154Z,2.33
2019-06-07T17:26:20.361Z,1.90
2019-06-07T17:27:26.136Z,1.92
2019-06-07T17:28:31.236Z,1.80
2019-06-07T17:29:36.935Z,1.87
2019-06-07T17:30:42.011Z,1.85
2019-06-07T17:31:48.251Z,1.40
2019-06-07T17:32:58.682Z,1.87
2019-06-07T17:34:00.983Z,1.60
2019-06-07T17:35:08.238Z,1.95
2019-06-07T17:36:13.866Z,1.67
2019-06-07T17:37:18.990Z,2.15
2019-06-07T17:38:24.717Z,2.20
2019-06-07T17:39:29.868Z,1.52
2019-06-07T17:40:35.575Z,1.70
2019-06-07T17:41:52.607Z,1.60
2019-06-07T17:42:49.062Z,1.67
2019-06-07T17:44:00.004Z,1.70
2019-06-07T17:45:01.790Z,1.82
2019-06-07T17:46:06.971Z,1.95
2019-06-07T17:47:12.710Z,1.90
2019-06-07T17:48:17.839Z,1.27
2019-06-07T17:49:23.556Z,1.87
2019-06-07T17:50:28.689Z,1.35
2019-06-07T17:51:34.376Z,1.32
2019-06-07T17:52:39.433Z,1.30
2019-06-07T17:53:45.864Z,1.20
2019-06-07T17:54:52.254Z,1.30
2019-06-07T17:55:58.181Z,1.10
2019-06-07T17:57:03.330Z,1.12
2019-06-07T17:58:09.060Z,1.27
2019-06-07T17:59:14.269Z,1.40
2019-06-07T18:00:29.012Z,1.35
2019-06-07T18:01:40.702Z,1.27
2019-06-07T18:02:34.606Z,1.00
2019-06-07T18:03:39.834Z,1.40
2019-06-07T18:04:45.552Z,1.35
2019-06-07T18:05:51.411Z,1.12
2019-06-07T18:06:57.947Z,1.15
2019-06-07T18:08:03.704Z,1.57
2019-06-07T18:09:09.884Z,1.60
2019-06-07T18:10:21.842Z,1.52
2019-06-07T18:11:27.489Z,1.62
2019-06-07T18:12:33.375Z,1.10
2019-06-07T18:13:39.196Z,1.20
2019-06-07T18:14:44.342Z,1.40
2019-06-07T18:15:53.795Z,2.55
2019-06-07T18:16:56.894Z,1.85
2019-06-07T18:18:02.640Z,1.30
2019-06-07T18:19:07.775Z,1.17
2019-06-07T18:20:13.606Z,1.02
2019-06-07T18:21:18.681Z,1.30
2019-06-07T18:22:24.369Z,0.95
2019-06-07T18:23:29.414Z,0.88
2019-06-07T18:24:36.073Z,1.12
2019-06-07T18:25:42.650Z,1.00
2019-06-07T18:26:48.458Z,1.00
2019-06-07T18:27:54.478Z,0.90
2019-06-07T18:29:00.529Z,1.12
2019-06-07T18:30:11.190Z,1.37
2019-06-07T18:31:13.550Z,1.02
2019-06-07T18:32:18.692Z,1.10
2019-06-07T18:33:24.584Z,1.22
2019-06-07T18:34:29.723Z,1.00
2019-06-07T18:35:35.449Z,0.90
2019-06-07T18:36:40.890Z,1.32
2019-06-07T18:37:46.961Z,0.90
2019-06-07T18:38:53.264Z,1.17
2019-06-07T18:40:00.388Z,0.75
2019-06-07T18:41:06.972Z,0.75
2019-06-07T18:42:12.733Z,1.02
2019-06-07T18:43:17.760Z,0.80
2019-06-07T18:44:23.572Z,0.78
2019-06-07T18:45:28.721Z,0.90